Terminal Aerodrome Forecast
Issued by NWS

Home | Current Version | Previous Version | Text Only | Print | Product List | Glossary On
Versions: 1 2 3 4 5 6 7 8 9 10 11 12 13 14 15 16 17 18 19 20 21 22 23 24 25 26 27 28 29 30 31
000
FTUS42 KCAE 020500
TAFDNL
TAF
KDNL 020534Z 0206/0306 VRB05KT 1SM BR OVC002
     FM020800 VRB03KT 1/2SM FG OVC001
     FM021500 29005KT 4SM BR OVC004
     FM021700 31005KT P6SM OVC015
     FM022100 02006KT P6SM BKN025=

USA.gov is the U.S. government's official web portal to all federal, state and local government web resources and services.